createdAt,value
2023-03-15T00:00:18.060Z,60972.91
2023-03-15T00:02:46.477Z,60973.75
2023-03-15T00:05:14.971Z,60972.00
2023-03-15T00:07:43.308Z,60951.56
2023-03-15T00:10:13.525Z,60976.56
2023-03-15T00:12:43.161Z,60957.31
2023-03-15T00:15:15.279Z,60954.13
2023-03-15T00:17:45.026Z,60952.63
2023-03-15T00:20:15.778Z,60954.38
2023-03-15T00:22:45.286Z,60940.47
2023-03-15T00:25:15.216Z,60950.50
2023-03-15T00:27:43.678Z,60951.56
2023-03-15T00:30:13.150Z,60936.22
2023-03-15T00:32:42.696Z,60939.16
2023-03-15T00:35:13.104Z,60937.28
2023-03-15T00:37:41.670Z,60956.38
2023-03-15T00:40:12.278Z,60947.97
2023-03-15T00:42:42.265Z,60928.59
2023-03-15T00:45:11.394Z,60937.44
2023-03-15T00:47:39.847Z,60919.94
2023-03-15T00:50:08.882Z,60916.06
2023-03-15T00:52:38.271Z,60919.41
2023-03-15T00:55:07.744Z,60911.94
2023-03-15T00:57:36.332Z,60901.50
2023-03-15T01:00:08.708Z,60899.25
2023-03-15T01:02:37.928Z,60883.25
2023-03-15T01:05:07.887Z,60897.53
2023-03-15T01:07:37.085Z,60898.59
2023-03-15T01:10:09.019Z,60881.09
2023-03-15T01:12:37.389Z,60883.53
2023-03-15T01:15:11.945Z,60889.13
2023-03-15T01:17:40.610Z,60897.09
2023-03-15T01:20:11.283Z,60878.56
2023-03-15T01:22:39.636Z,60882.84
2023-03-15T01:25:10.485Z,60887.09
2023-03-15T01:27:39.238Z,60888.03
2023-03-15T01:30:11.090Z,60885.38
2023-03-15T01:32:39.624Z,60885.38
2023-03-15T01:35:09.510Z,60864.69
2023-03-15T01:37:37.913Z,60874.06
2023-03-15T01:40:09.737Z,60888.47
2023-03-15T01:42:54.376Z,60871.63
2023-03-15T01:46:09.191Z,60874.69
2023-03-15T01:48:45.962Z,60859.63
2023-03-15T01:51:26.021Z,60866.56
2023-03-15T01:54:00.114Z,60856.69
2023-03-15T01:56:30.380Z,60854.97
2023-03-15T01:59:00.795Z,60849.50
2023-03-15T02:01:31.651Z,60855.50
2023-03-15T02:04:06.569Z,60846.41
2023-03-15T02:06:39.186Z,60854.31
2023-03-15T02:09:15.170Z,60843.22
2023-03-15T02:11:44.306Z,60848.03
2023-03-15T02:14:14.593Z,60847.06
2023-03-15T02:16:46.470Z,60843.09
2023-03-15T02:19:35.108Z,60842.03
2023-03-15T02:22:21.781Z,60841.09
2023-03-15T02:24:57.966Z,60848.56
2023-03-15T02:27:32.328Z,60844.19
2023-03-15T02:30:03.399Z,60850.16
2023-03-15T02:32:32.218Z,60853.91
2023-03-15T02:35:00.897Z,60848.03
2023-03-15T02:37:30.334Z,60848.44
2023-03-15T02:39:58.743Z,60842.56
2023-03-15T02:42:29.267Z,60828.59
2023-03-15T02:44:59.527Z,60814.31
2023-03-15T02:47:33.738Z,60789.38
2023-03-15T02:50:02.458Z,60793.22
2023-03-15T02:52:31.070Z,60791.63
2023-03-15T02:54:59.450Z,60789.38
2023-03-15T02:57:30.347Z,60794.31
2023-03-15T03:00:00.641Z,60805.78
2023-03-15T03:02:29.600Z,60805.78
2023-03-15T03:04:58.084Z,60806.84
2023-03-15T03:07:26.499Z,60800.69
2023-03-15T03:10:00.926Z,60807.63
2023-03-15T03:12:33.658Z,60806.44
2023-03-15T03:15:02.842Z,60800.97
2023-03-15T03:17:37.344Z,60805.25
2023-03-15T03:20:09.632Z,60796.03
2023-03-15T03:22:44.972Z,60793.75
2023-03-15T03:25:14.163Z,60782.97
2023-03-15T03:27:44.072Z,60768.72
2023-03-15T03:30:15.751Z,60785.50
2023-03-15T03:32:49.868Z,60781.78
2023-03-15T03:35:18.635Z,60771.91
2023-03-15T03:37:47.074Z,60768.59
2023-03-15T03:40:22.927Z,60767.41
2023-03-15T03:42:52.770Z,60769.09
2023-03-15T03:45:21.942Z,60769.50
2023-03-15T03:47:54.003Z,60760.06
2023-03-15T03:50:22.693Z,60748.97
2023-03-15T03:52:51.407Z,60765.38
2023-03-15T03:55:25.563Z,60755.66
2023-03-15T03:57:56.619Z,60766.75
2023-03-15T04:00:44.267Z,60763.25
2023-03-15T04:03:13.856Z,60771.25
2023-03-15T04:05:47.397Z,60775.94
2023-03-15T04:08:19.823Z,60762.19
2023-03-15T04:10:53.207Z,60764.31
2023-03-15T04:13:25.215Z,60761.66
2023-03-15T04:15:57.623Z,60763.38
2023-03-15T04:18:29.757Z,60759.53
2023-03-15T04:20:58.318Z,60756.97
2023-03-15T04:23:27.215Z,60746.75
2023-03-15T04:26:08.281Z,60766.31
2023-03-15T04:28:54.900Z,60760.06
2023-03-15T04:31:43.362Z,60756.31
2023-03-15T04:34:31.766Z,60743.41
2023-03-15T04:37:07.429Z,60748.19
2023-03-15T04:39:39.228Z,60750.34
2023-03-15T04:42:26.652Z,60735.00
2023-03-15T04:45:20.720Z,60731.00
2023-03-15T04:48:02.357Z,60740.31
2023-03-15T04:50:42.832Z,60728.59
2023-03-15T04:53:22.786Z,60749.28
2023-03-15T04:56:09.965Z,60746.59
2023-03-15T04:58:56.030Z,60738.22
2023-03-15T05:01:42.312Z,60728.06
2023-03-15T05:04:22.941Z,60732.59
2023-03-15T05:07:20.774Z,60744.59
2023-03-15T05:10:00.657Z,60754.72
2023-03-15T05:12:50.651Z,60749.28
2023-03-15T05:15:51.449Z,60751.66
2023-03-15T05:18:47.297Z,60738.22
2023-03-15T05:21:34.426Z,60742.47
2023-03-15T05:24:32.672Z,60738.88
2023-03-15T05:27:16.099Z,60734.34
2023-03-15T05:29:54.552Z,60737.56
2023-03-15T05:32:26.903Z,60737.78
2023-03-15T05:35:16.734Z,60739.13
2023-03-15T05:38:05.984Z,60741.41
2023-03-15T05:40:51.985Z,60748.19
2023-03-15T05:43:46.555Z,60737.78
2023-03-15T05:46:39.912Z,60731.78
2023-03-15T05:49:28.023Z,60735.13
2023-03-15T05:52:26.394Z,60719.69
2023-03-15T05:55:18.220Z,60723.69
2023-03-15T05:57:55.878Z,60716.09
2023-03-15T06:00:39.427Z,60709.28
2023-03-15T06:03:17.412Z,60702.63
2023-03-15T06:05:55.277Z,60703.19
2023-03-15T06:08:34.549Z,60695.97
2023-03-15T06:11:03.018Z,60702.38
2023-03-15T06:13:32.502Z,60702.38
2023-03-15T06:16:03.378Z,60691.97
2023-03-15T06:18:33.388Z,60704.25
2023-03-15T06:21:01.799Z,60705.06
2023-03-15T06:23:30.166Z,60695.72
2023-03-15T06:26:00.043Z,60706.63
2023-03-15T06:28:31.004Z,60707.94
2023-03-15T06:31:09.091Z,60702.63
2023-03-15T06:33:44.867Z,60710.38
2023-03-15T06:36:14.284Z,60713.28
2023-03-15T06:38:43.063Z,60712.63
2023-03-15T06:41:15.333Z,60716.88
2023-03-15T06:43:44.112Z,60716.88
2023-03-15T06:46:13.357Z,60720.75
2023-03-15T06:48:42.349Z,60706.38
2023-03-15T06:51:12.638Z,60712.22
2023-03-15T06:53:41.081Z,60723.69
2023-03-15T06:56:09.623Z,60719.41
2023-03-15T06:58:39.394Z,60725.94
2023-03-15T07:01:07.818Z,60710.50
2023-03-15T07:03:36.213Z,60715.94
2023-03-15T07:06:04.982Z,60724.34
2023-03-15T07:08:33.739Z,60725.41
2023-03-15T07:11:02.106Z,60721.69
2023-03-15T07:13:30.567Z,60720.91
2023-03-15T07:16:00.332Z,60717.84
2023-03-15T07:18:28.890Z,60707.16
2023-03-15T07:20:58.377Z,60704.09
2023-03-15T07:23:27.281Z,60714.25
2023-03-15T07:25:56.366Z,60710.38
2023-03-15T07:28:26.133Z,60710.91
2023-03-15T07:30:56.417Z,60713.56
2023-03-15T07:33:27.610Z,60714.75
2023-03-15T07:35:56.798Z,60708.78
2023-03-15T07:38:28.877Z,60702.09
2023-03-15T07:40:57.816Z,60714.75
2023-03-15T07:43:26.196Z,60714.09
2023-03-15T07:46:07.760Z,60714.75
2023-03-15T07:48:37.552Z,60727.94
2023-03-15T07:51:06.949Z,60738.75
2023-03-15T07:53:35.377Z,60759.91
2023-03-15T07:56:04.152Z,60773.78
2023-03-15T07:58:32.686Z,60789.25
2023-03-15T08:01:01.277Z,60787.22
2023-03-15T08:03:29.660Z,60789.38
2023-03-15T08:06:02.217Z,60812.97
2023-03-15T08:08:30.733Z,60832.16
2023-03-15T08:10:59.472Z,60842.56
2023-03-15T08:13:27.852Z,60820.19
2023-03-15T08:15:56.264Z,60801.75
2023-03-15T08:18:24.759Z,60808.97
2023-03-15T08:20:53.125Z,60823.06
2023-03-15T08:23:23.076Z,60804.94
2023-03-15T08:25:51.459Z,60833.09
2023-03-15T08:28:19.808Z,60837.09
2023-03-15T08:30:48.168Z,60843.09
2023-03-15T08:33:16.947Z,60859.75
2023-03-15T08:35:45.343Z,60856.44
2023-03-15T08:38:14.564Z,60885.38
2023-03-15T08:40:44.559Z,60844.44
2023-03-15T08:43:12.909Z,60851.75
2023-03-15T08:45:59.750Z,60853.78
2023-03-15T08:48:28.903Z,60876.72
2023-03-15T08:50:58.355Z,60890.06
2023-03-15T08:53:26.688Z,60899.66
2023-03-15T08:55:56.434Z,60903.41
2023-03-15T08:58:24.983Z,60900.44
2023-03-15T09:00:54.005Z,60896.16
2023-03-15T09:03:23.062Z,60915.28
2023-03-15T09:05:51.413Z,60919.94
2023-03-15T09:08:21.532Z,60924.22
2023-03-15T09:10:50.253Z,60947.28
2023-03-15T09:13:20.001Z,60976.66
2023-03-15T09:15:50.995Z,61079.56
2023-03-15T09:18:19.727Z,61170.75
2023-03-15T09:20:48.521Z,61102.81
2023-03-15T09:23:17.111Z,61112.56
2023-03-15T09:25:45.500Z,61149.75
2023-03-15T09:28:13.895Z,61155.34
2023-03-15T09:30:44.411Z,61224.28
2023-03-15T09:33:14.908Z,61294.31
2023-03-15T09:35:43.852Z,61300.22
2023-03-15T09:38:12.322Z,61367.22
2023-03-15T09:40:45.060Z,61330.53
2023-03-15T09:43:43.157Z,61213.56
2023-03-15T09:46:28.078Z,61255.88
2023-03-15T09:49:02.784Z,61195.13
2023-03-15T09:51:39.916Z,61123.00
2023-03-15T09:54:14.592Z,61139.19
2023-03-15T09:56:51.635Z,61160.69
2023-03-15T09:59:22.944Z,61125.16
2023-03-15T10:01:57.224Z,61089.44
2023-03-15T10:04:31.046Z,61071.81
2023-03-15T10:07:02.125Z,61094.66
2023-03-15T10:09:34.552Z,61080.91
2023-03-15T10:12:11.272Z,61078.75
2023-03-15T10:15:05.914Z,61055.63
2023-03-15T10:17:43.980Z,61036.38
2023-03-15T10:20:16.064Z,61055.09
2023-03-15T10:22:56.455Z,61033.41
2023-03-15T10:25:28.137Z,61041.31
2023-03-15T10:28:01.168Z,61094.78
2023-03-15T10:30:33.117Z,61133.84
2023-03-15T10:33:08.019Z,61152.16
2023-03-15T10:35:36.649Z,61110.41
2023-03-15T10:38:13.553Z,61092.00
2023-03-15T10:40:45.437Z,61041.84
2023-03-15T10:43:18.782Z,61030.63
2023-03-15T10:46:00.195Z,61061.38
2023-03-15T10:48:31.563Z,61167.53
2023-03-15T10:51:06.832Z,61277.81
2023-03-15T10:53:35.835Z,61353.81
2023-03-15T10:56:08.719Z,61432.75
2023-03-15T10:59:05.315Z,61430.06
2023-03-15T11:01:37.640Z,61477.72
2023-03-15T11:04:17.675Z,61465.47
2023-03-15T11:06:49.771Z,61488.44
2023-03-15T11:09:22.258Z,61504.97
2023-03-15T11:12:01.651Z,61516.38
2023-03-15T11:14:36.153Z,61501.34
2023-03-15T11:17:09.921Z,61487.38
2023-03-15T11:19:44.003Z,61458.09
2023-03-15T11:22:15.288Z,61419.47
2023-03-15T11:24:43.852Z,61391.88
2023-03-15T11:27:16.018Z,61348.03
2023-03-15T11:29:49.198Z,61295.38
2023-03-15T11:32:21.843Z,61317.38
2023-03-15T11:34:59.152Z,61359.31
2023-03-15T11:37:34.787Z,61437.59
2023-03-15T11:40:13.192Z,61454.88
2023-03-15T11:42:50.052Z,61416.97
2023-03-15T11:45:24.281Z,61389.97
2023-03-15T11:47:57.797Z,61329.03
2023-03-15T11:50:27.735Z,61305.16
2023-03-15T11:52:56.218Z,61272.88
2023-03-15T11:55:28.140Z,61253.06
2023-03-15T11:57:58.020Z,61255.34
2023-03-15T12:00:53.171Z,61267.53
2023-03-15T12:03:36.755Z,61246.34
2023-03-15T12:06:14.057Z,61219.88
2023-03-15T12:08:50.731Z,61217.19
2023-03-15T12:11:41.461Z,61219.75
2023-03-15T12:14:30.007Z,61243.97
2023-03-15T12:17:47.911Z,61207.13
2023-03-15T12:20:38.469Z,61250.38
2023-03-15T12:23:23.955Z,61259.63
2023-03-15T12:25:57.516Z,61233.91
2023-03-15T12:28:29.794Z,61248.25
2023-03-15T12:31:01.869Z,61246.75
2023-03-15T12:33:33.992Z,61241.94
2023-03-15T12:36:06.079Z,61260.03
2023-03-15T12:38:41.872Z,61285.75
2023-03-15T12:41:35.149Z,61277.16
2023-03-15T12:44:39.527Z,61326.06
2023-03-15T12:47:09.487Z,61328.19
2023-03-15T12:49:43.833Z,61327.03
2023-03-15T12:52:39.466Z,61334.50
2023-03-15T12:55:16.795Z,61337.84
2023-03-15T12:57:50.898Z,61351.13
2023-03-15T13:00:25.074Z,61361.44
2023-03-15T13:03:07.106Z,61287.88
2023-03-15T13:06:01.340Z,61281.03
2023-03-15T13:08:38.202Z,61275.25
2023-03-15T13:11:21.899Z,61277.28
2023-03-15T13:14:25.036Z,61272.47
2023-03-15T13:17:06.820Z,61236.59
2023-03-15T13:19:42.839Z,61257.34
2023-03-15T13:22:22.902Z,61254.25
2023-03-15T13:25:01.120Z,61298.19
2023-03-15T13:27:46.591Z,61310.94
2023-03-15T13:30:44.232Z,61318.16
2023-03-15T13:33:22.386Z,61295.38
2023-03-15T13:35:57.977Z,61278.22
2023-03-15T13:38:33.190Z,61259.19
2023-03-15T13:41:04.679Z,61261.41
2023-03-15T13:43:37.992Z,61262.16
2023-03-15T13:46:07.450Z,61268.19
2023-03-15T13:48:38.822Z,61252.53
2023-03-15T13:51:13.782Z,61275.00
2023-03-15T13:53:49.809Z,61285.97
2023-03-15T13:56:21.838Z,61312.53
2023-03-15T13:58:53.076Z,61327.03
2023-03-15T14:01:24.316Z,61325.41
2023-03-15T14:03:58.111Z,61345.34
2023-03-15T14:06:29.004Z,61342.16
2023-03-15T14:09:10.205Z,61317.47
2023-03-15T14:11:40.741Z,61330.22
2023-03-15T14:14:29.060Z,61310.63
2023-03-15T14:17:05.828Z,61316.00
2023-03-15T14:19:36.968Z,61303.41
2023-03-15T14:22:16.535Z,61242.06
2023-03-15T14:24:48.531Z,61255.34
2023-03-15T14:27:20.330Z,61265.63
2023-03-15T14:29:53.535Z,61255.75
2023-03-15T14:32:29.568Z,61250.38
2023-03-15T14:35:04.288Z,61229.75
2023-03-15T14:37:39.183Z,61229.63
2023-03-15T14:40:20.998Z,61237.13
2023-03-15T14:42:50.955Z,61261.75
2023-03-15T14:45:22.330Z,61260.03
2023-03-15T14:47:57.084Z,61284.78
2023-03-15T14:50:29.547Z,61270.34
2023-03-15T14:52:59.702Z,61298.19
2023-03-15T14:55:34.694Z,61295.38
2023-03-15T14:58:03.481Z,61278.09
2023-03-15T15:00:34.674Z,61266.03
2023-03-15T15:03:04.042Z,61295.38
2023-03-15T15:05:36.142Z,61288.66
2023-03-15T15:08:10.112Z,61291.34
2023-03-15T15:10:38.611Z,61301.81
2023-03-15T15:13:07.688Z,61297.00
2023-03-15T15:15:53.849Z,61302.47
2023-03-15T15:18:24.903Z,61297.13
2023-03-15T15:20:56.122Z,61308.28
2023-03-15T15:23:27.981Z,61278.47
2023-03-15T15:26:00.501Z,61287.47
2023-03-15T15:28:35.896Z,61284.13
2023-03-15T15:31:07.558Z,61266.28
2023-03-15T15:33:36.567Z,61276.09
2023-03-15T15:36:08.418Z,61248.78
2023-03-15T15:38:39.079Z,61248.66
2023-03-15T15:41:14.305Z,61245.16
2023-03-15T15:43:43.416Z,61272.78
2023-03-15T15:46:14.827Z,61267.78
2023-03-15T15:48:43.697Z,61263.34
2023-03-15T15:51:22.287Z,61257.47
2023-03-15T15:53:50.847Z,61253.19
2023-03-15T15:56:19.571Z,61236.03
2023-03-15T15:58:48.484Z,61231.78
2023-03-15T16:01:18.486Z,61225.97
2023-03-15T16:03:46.901Z,61230.69
2023-03-15T16:06:20.710Z,61232.19
2023-03-15T16:08:52.144Z,61205.00
2023-03-15T16:11:20.924Z,61207.25
2023-03-15T16:13:53.867Z,61187.88
2023-03-15T16:16:24.191Z,61196.44
2023-03-15T16:18:52.593Z,61201.13
2023-03-15T16:21:33.535Z,61186.78
2023-03-15T16:24:08.383Z,61190.56
2023-03-15T16:26:39.211Z,61185.72
2023-03-15T16:29:17.706Z,61195.78
2023-03-15T16:31:48.263Z,61183.34
2023-03-15T16:34:19.040Z,61188.16
2023-03-15T16:36:49.754Z,61181.34
2023-03-15T16:39:18.502Z,61179.19
2023-03-15T16:41:46.903Z,61173.31
2023-03-15T16:44:19.160Z,61156.41
2023-03-15T16:46:50.047Z,61168.91
2023-03-15T16:49:18.488Z,61153.75
2023-03-15T16:51:51.216Z,61156.19
2023-03-15T16:54:38.288Z,61148.25
2023-03-15T16:57:15.803Z,61159.09
2023-03-15T16:59:44.181Z,61147.63
2023-03-15T17:02:24.100Z,61144.41
2023-03-15T17:04:53.634Z,61139.72
2023-03-15T17:07:27.716Z,61135.84
2023-03-15T17:09:56.618Z,61130.91
2023-03-15T17:12:28.632Z,61134.13
2023-03-15T17:14:59.270Z,61124.72
2023-03-15T17:17:32.488Z,61128.91
2023-03-15T17:20:01.972Z,61112.97
2023-03-15T17:22:30.746Z,61108.56
2023-03-15T17:25:00.100Z,61104.94
2023-03-15T17:27:34.579Z,61096.41
2023-03-15T17:30:03.151Z,61108.16
2023-03-15T17:32:32.954Z,61112.44
2023-03-15T17:35:01.397Z,61107.50
2023-03-15T17:37:33.852Z,61095.75
2023-03-15T17:40:12.411Z,61101.63
2023-03-15T17:42:41.096Z,61100.97
2023-03-15T17:45:17.605Z,61092.66
2023-03-15T17:47:47.418Z,61081.97
2023-03-15T17:50:16.432Z,61092.00
2023-03-15T17:52:45.760Z,61096.28
2023-03-15T17:55:19.394Z,61089.22
2023-03-15T17:57:54.780Z,61069.78
2023-03-15T18:00:25.440Z,61072.75
2023-03-15T18:02:56.569Z,61071.81
2023-03-15T18:05:28.189Z,61066.34
2023-03-15T18:07:59.162Z,61058.97
2023-03-15T18:10:35.184Z,61057.38
2023-03-15T18:13:04.499Z,61053.50
2023-03-15T18:15:34.002Z,61044.13
2023-03-15T18:18:06.210Z,61052.03
2023-03-15T18:20:34.827Z,61049.75
2023-03-15T18:23:04.075Z,61041.97
2023-03-15T18:25:35.202Z,61040.78
2023-03-15T18:28:04.176Z,61031.69
2023-03-15T18:30:33.736Z,61032.63
2023-03-15T18:33:05.708Z,61032.75
2023-03-15T18:35:37.008Z,61037.44
2023-03-15T18:38:06.518Z,61031.44
2023-03-15T18:40:35.844Z,61036.25
2023-03-15T18:43:05.547Z,61025.81
2023-03-15T18:45:36.605Z,61028.91
2023-03-15T18:48:07.404Z,61023.13
2023-03-15T18:50:36.520Z,61019.28
2023-03-15T18:53:06.550Z,61015.53
2023-03-15T18:55:35.780Z,61018.31
2023-03-15T18:58:05.249Z,61018.22
2023-03-15T19:00:36.182Z,61017.78
2023-03-15T19:03:07.608Z,61025.56
2023-03-15T19:05:38.663Z,61019.94
2023-03-15T19:08:07.330Z,61029.47
2023-03-15T19:10:35.763Z,61010.44
2023-03-15T19:13:04.886Z,61015.13
2023-03-15T19:15:33.366Z,61013.94
2023-03-15T19:18:02.081Z,61016.06
2023-03-15T19:20:32.017Z,61007.13
2023-03-15T19:23:00.531Z,61006.47
2023-03-15T19:25:28.873Z,60994.94
2023-03-15T19:27:58.048Z,60990.69
2023-03-15T19:30:27.585Z,60990.56
2023-03-15T19:32:56.307Z,60984.69
2023-03-15T19:35:24.901Z,60983.50
2023-03-15T19:37:56.298Z,60967.19
2023-03-15T19:40:25.207Z,60972.53
2023-03-15T19:42:54.220Z,60977.63
2023-03-15T19:45:22.776Z,60972.91
2023-03-15T19:47:51.401Z,60974.00
2023-03-15T19:50:20.294Z,60967.44
2023-03-15T19:52:48.870Z,60945.56
2023-03-15T19:55:21.394Z,60918.03
2023-03-15T19:57:49.878Z,60910.88
2023-03-15T20:00:20.852Z,60893.78
2023-03-15T20:02:49.918Z,60891.38
2023-03-15T20:05:20.894Z,60886.44
2023-03-15T20:07:51.194Z,60893.78
2023-03-15T20:10:21.830Z,60892.84
2023-03-15T20:12:50.461Z,60893.91
2023-03-15T20:15:21.017Z,60891.38
2023-03-15T20:17:49.567Z,60893.78
2023-03-15T20:20:19.426Z,60889.53
2023-03-15T20:22:48.089Z,60897.00
2023-03-15T20:25:18.429Z,60894.56
2023-03-15T20:27:48.609Z,60897.22
2023-03-15T20:30:18.954Z,60885.50
2023-03-15T20:32:47.475Z,60892.19
2023-03-15T20:35:16.064Z,60889.66
2023-03-15T20:37:44.495Z,60882.16
2023-03-15T20:40:15.317Z,60877.25
2023-03-15T20:42:44.301Z,60867.88
2023-03-15T20:45:15.001Z,60869.91
2023-03-15T20:47:43.609Z,60862.56
2023-03-15T20:50:13.682Z,60863.91
2023-03-15T20:52:42.739Z,60866.56
2023-03-15T20:55:13.693Z,60868.31
2023-03-15T20:57:43.068Z,60862.44
2023-03-15T21:00:18.210Z,60858.69
2023-03-15T21:02:47.726Z,60856.69
2023-03-15T21:05:17.137Z,60853.13
2023-03-15T21:07:46.637Z,60851.75
2023-03-15T21:10:15.205Z,60850.56
2023-03-15T21:12:44.972Z,60861.22
2023-03-15T21:15:17.606Z,60864.44
2023-03-15T21:17:48.662Z,60859.75
2023-03-15T21:20:17.617Z,60848.03
2023-03-15T21:22:46.093Z,60835.09
2023-03-15T21:25:14.526Z,60835.25
2023-03-15T21:27:43.023Z,60832.97
2023-03-15T21:30:15.070Z,60825.22
2023-03-15T21:32:44.758Z,60827.63
2023-03-15T21:35:13.443Z,60821.75
2023-03-15T21:37:41.837Z,60816.16
2023-03-15T21:40:12.467Z,60808.97
2023-03-15T21:42:40.939Z,60798.97
2023-03-15T21:45:12.085Z,60784.44
2023-03-15T21:47:41.927Z,60761.09
2023-03-15T21:50:12.709Z,60749.28
2023-03-15T21:52:41.333Z,60761.53
2023-03-15T21:55:15.368Z,60759.91
2023-03-15T21:57:44.859Z,60764.19
2023-03-15T22:00:16.138Z,60733.94
2023-03-15T22:02:46.613Z,60746.19
2023-03-15T22:05:15.170Z,60741.41
2023-03-15T22:07:44.164Z,60741.81
2023-03-15T22:10:14.405Z,60725.00
2023-03-15T22:12:43.460Z,60732.75
2023-03-15T22:15:13.392Z,60723.16
2023-03-15T22:17:42.169Z,60735.13
2023-03-15T22:20:16.982Z,60731.28
2023-03-15T22:22:45.698Z,60700.91
2023-03-15T22:25:15.085Z,60699.84
2023-03-15T22:27:43.541Z,60699.19
2023-03-15T22:30:14.612Z,60680.66
2023-03-15T22:32:44.412Z,60664.69
2023-03-15T22:35:15.944Z,60629.44
2023-03-15T22:37:44.498Z,60641.69
2023-03-15T22:40:14.666Z,60637.81
2023-03-15T22:42:44.085Z,60621.03
2023-03-15T22:45:13.603Z,60613.59
2023-03-15T22:47:42.121Z,60604.13
2023-03-15T22:50:13.589Z,60612.94
2023-03-15T22:52:42.145Z,60618.25
2023-03-15T22:55:11.946Z,60620.38
2023-03-15T22:57:41.074Z,60611.06
2023-03-15T23:00:14.026Z,60602.97
2023-03-15T23:02:42.838Z,60588.06
2023-03-15T23:05:14.156Z,60582.72
2023-03-15T23:07:42.864Z,60597.75
2023-03-15T23:10:12.623Z,60648.72
2023-03-15T23:12:41.337Z,60688.53
2023-03-15T23:15:12.097Z,60724.75
2023-03-15T23:17:45.820Z,60741.41
2023-03-15T23:20:18.559Z,60737.25
2023-03-15T23:22:48.112Z,60747.13
2023-03-15T23:25:20.676Z,60716.88
2023-03-15T23:27:49.733Z,60715.16
2023-03-15T23:30:18.732Z,60644.22
2023-03-15T23:32:47.421Z,60621.56
2023-03-15T23:35:17.172Z,60614.66
2023-03-15T23:37:45.600Z,60581.69
2023-03-15T23:40:15.556Z,60574.09
2023-03-15T23:42:45.064Z,60566.09
2023-03-15T23:45:16.295Z,60572.25
2023-03-15T23:47:45.514Z,60564.22
2023-03-15T23:50:14.153Z,60574.63
2023-03-15T23:52:43.919Z,60570.25
2023-03-15T23:55:12.483Z,60553.47
2023-03-15T23:57:41.482Z,60559.72
